Helmville, Montana
Current Conditions -  °F | °C
As of 10:53 PM on Saturday 25 Oct 2014 (Local Time) from KHLN Reporting Station
Light Rain Light Rain  
Wind Chill: 58°   Ceiling: 9500
Heat Index: 58°   Visibility: 10mi
Dew Point: 39°   Wind: 25mph
Humidity: 49%   Direction: 210°SSW
Pressure: 29.69"   Gusts: 37mph
Location:  46.87°N, 112.96°W
Report Text: KHLN 260453Z AUTO 21022G32KT 10SM -RA FEW015 BKN095 OVC110 14/04 A2969 RMK AO2 PK WND 20032/0451 RAB50 SLP062 P0000 T01440039
Loading
Personal Weather Stations






























Interactive Weather Map New forecast layout! Learn more

10-Day Weather Forecast

Advertisements
Track Severe Weather on mobile